createdAt,value
2018-11-04T00:00:32.777Z,2.51
2018-11-04T00:03:01.193Z,2.46
2018-11-04T00:05:29.627Z,2.43
2018-11-04T00:07:57.999Z,2.42
2018-11-04T00:10:26.270Z,2.39
2018-11-04T00:12:54.731Z,2.36
2018-11-04T00:15:23.200Z,2.38
2018-11-04T00:17:51.558Z,2.42
2018-11-04T00:20:20.082Z,2.43
2018-11-04T00:22:48.586Z,2.41
2018-11-04T00:25:17.182Z,2.40
2018-11-04T00:27:45.469Z,2.39
2018-11-04T00:30:14.873Z,2.39
2018-11-04T00:32:43.866Z,2.34
2018-11-04T00:35:12.439Z,2.32
2018-11-04T00:37:41.059Z,2.30
2018-11-04T00:40:09.482Z,2.28
2018-11-04T00:42:38.085Z,2.33
2018-11-04T00:45:07.897Z,2.40
2018-11-04T00:47:36.246Z,2.43
2018-11-04T00:50:04.892Z,2.43
2018-11-04T00:52:33.168Z,2.45
2018-11-04T00:55:01.466Z,2.47
2018-11-04T00:57:29.739Z,2.48
2018-11-04T00:59:58.027Z,2.47
2018-11-04T01:02:26.307Z,2.40
2018-11-04T01:04:54.595Z,2.38
2018-11-04T01:07:22.878Z,2.40
2018-11-04T01:09:51.163Z,2.42
2018-11-04T01:12:19.436Z,2.40
2018-11-04T01:14:47.703Z,2.34
2018-11-04T01:17:16.029Z,2.35
2018-11-04T01:19:44.314Z,2.34
2018-11-04T01:22:12.595Z,2.31
2018-11-04T01:24:40.861Z,2.29
2018-11-04T01:27:09.147Z,2.28
2018-11-04T01:29:37.429Z,2.31
2018-11-04T01:32:06.105Z,2.37
2018-11-04T01:34:34.470Z,2.42
2018-11-04T01:37:02.733Z,2.42
2018-11-04T01:39:31.047Z,2.42
2018-11-04T01:41:59.391Z,2.43
2018-11-04T01:44:27.682Z,2.42
2018-11-04T01:46:55.968Z,2.41
2018-11-04T01:49:24.233Z,2.40
2018-11-04T01:51:52.551Z,2.36
2018-11-04T01:54:20.832Z,2.34
2018-11-04T01:56:49.160Z,2.36
2018-11-04T01:59:17.476Z,2.40
2018-11-04T02:01:45.798Z,2.46
2018-11-04T02:04:14.499Z,2.43
2018-11-04T02:06:42.783Z,2.43
2018-11-04T02:09:11.915Z,2.45
2018-11-04T02:11:40.415Z,2.49
2018-11-04T02:14:08.701Z,2.50
2018-11-04T02:16:37.258Z,2.49
2018-11-04T02:19:05.657Z,2.49
2018-11-04T02:21:34.004Z,2.47
2018-11-04T02:24:02.427Z,2.44
2018-11-04T02:26:30.715Z,2.42
2018-11-04T02:28:59.011Z,2.41
2018-11-04T02:31:27.453Z,2.38
2018-11-04T02:33:55.733Z,2.32
2018-11-04T02:36:24.128Z,2.27
2018-11-04T02:38:52.392Z,2.29
2018-11-04T02:41:20.704Z,2.33
2018-11-04T02:43:48.995Z,2.40
2018-11-04T02:46:17.292Z,2.44
2018-11-04T02:48:45.564Z,2.42
2018-11-04T02:51:13.893Z,2.38
2018-11-04T02:53:42.130Z,2.37
2018-11-04T02:56:10.416Z,2.32
2018-11-04T02:58:38.703Z,2.28
2018-11-04T03:01:06.993Z,2.27
2018-11-04T03:03:35.265Z,2.33
2018-11-04T03:06:03.543Z,2.42
2018-11-04T03:08:31.821Z,2.44
2018-11-04T03:11:00.071Z,2.42
2018-11-04T03:13:28.347Z,2.40
2018-11-04T03:15:56.632Z,2.40
2018-11-04T03:18:24.925Z,2.42
2018-11-04T03:20:53.321Z,2.46
2018-11-04T03:26:01.405Z,2.46
2018-11-04T03:28:29.664Z,2.47
2018-11-04T03:30:57.973Z,2.49
2018-11-04T03:33:26.222Z,2.52
2018-11-04T03:35:54.502Z,2.52
2018-11-04T03:38:22.772Z,2.52
2018-11-04T03:40:51.043Z,2.54
2018-11-04T03:43:19.376Z,2.56
2018-11-04T03:45:47.645Z,2.56
2018-11-04T03:48:15.920Z,2.54
2018-11-04T03:50:44.252Z,2.51
2018-11-04T03:53:12.550Z,2.53
2018-11-04T03:55:40.871Z,2.58
2018-11-04T03:58:09.180Z,2.66
2018-11-04T04:00:37.451Z,2.73
2018-11-04T04:03:05.919Z,2.83
2018-11-04T04:05:34.156Z,2.88
2018-11-04T04:08:02.487Z,2.92
2018-11-04T04:10:30.806Z,2.98
2018-11-04T04:12:59.111Z,3.02
2018-11-04T04:15:27.421Z,3.05
2018-11-04T04:17:55.725Z,3.07
2018-11-04T04:20:24.035Z,3.10
2018-11-04T04:22:52.316Z,3.16
2018-11-04T04:25:20.600Z,3.19
2018-11-04T04:27:48.919Z,3.24
2018-11-04T04:30:17.183Z,3.31
2018-11-04T04:32:45.464Z,3.34
2018-11-04T04:35:13.767Z,3.38
2018-11-04T04:37:42.331Z,3.42
2018-11-04T04:40:10.915Z,3.45
2018-11-04T04:42:39.268Z,3.48
2018-11-04T04:45:07.676Z,3.48
2018-11-04T04:47:36.051Z,3.51
2018-11-04T04:50:04.949Z,3.54
2018-11-04T04:52:33.316Z,3.57
2018-11-04T04:55:01.606Z,3.59
2018-11-04T04:57:29.903Z,3.58
2018-11-04T04:59:58.350Z,3.57
2018-11-04T05:02:26.811Z,3.60
2018-11-04T05:04:55.190Z,3.63
2018-11-04T05:07:23.471Z,3.67
2018-11-04T05:09:51.927Z,3.72
2018-11-04T05:12:20.201Z,3.76
2018-11-04T05:14:48.599Z,3.77
2018-11-04T05:17:16.884Z,3.79
2018-11-04T05:19:45.155Z,3.85
2018-11-04T05:22:13.431Z,3.91
2018-11-04T05:24:41.711Z,3.93
2018-11-04T05:27:10.007Z,3.95
2018-11-04T05:29:38.281Z,3.98
2018-11-04T05:32:06.524Z,4.01
2018-11-04T05:34:34.823Z,4.02
2018-11-04T05:37:03.111Z,4.08
2018-11-04T05:39:31.422Z,4.07
2018-11-04T05:41:59.692Z,4.06
2018-11-04T05:44:27.936Z,4.05
2018-11-04T05:46:56.231Z,4.07
2018-11-04T05:49:24.508Z,4.10
2018-11-04T05:51:52.775Z,4.16
2018-11-04T05:54:21.119Z,4.21
2018-11-04T05:56:49.426Z,4.24
2018-11-04T05:59:17.688Z,4.29
2018-11-04T06:01:46.136Z,4.32
2018-11-04T06:04:14.640Z,4.33
2018-11-04T06:06:42.943Z,4.33
2018-11-04T06:09:11.356Z,4.32
2018-11-04T06:11:39.878Z,4.31
2018-11-04T06:14:08.477Z,4.36
2018-11-04T06:16:36.752Z,4.40
2018-11-04T06:19:05.538Z,4.43
2018-11-04T06:21:33.845Z,4.42
2018-11-04T06:24:02.102Z,4.38
2018-11-04T06:26:30.368Z,4.37
2018-11-04T06:28:58.639Z,4.35
2018-11-04T06:31:26.987Z,4.36
2018-11-04T06:33:55.259Z,4.39
2018-11-04T06:36:23.506Z,4.43
2018-11-04T06:38:51.896Z,4.45
2018-11-04T06:41:20.203Z,4.42
2018-11-04T06:43:48.448Z,4.39
2018-11-04T06:46:16.827Z,4.38
2018-11-04T06:48:45.244Z,4.33
2018-11-04T06:51:13.606Z,4.36
2018-11-04T06:53:41.907Z,4.42
2018-11-04T06:56:10.170Z,4.49
2018-11-04T06:58:38.471Z,4.51
2018-11-04T07:01:06.729Z,4.57
2018-11-04T07:03:35.034Z,4.61
2018-11-04T07:06:03.316Z,4.62
2018-11-04T07:08:31.598Z,4.69
2018-11-04T07:10:59.904Z,4.75
2018-11-04T07:13:28.155Z,4.78
2018-11-04T07:15:56.411Z,4.84
2018-11-04T07:18:24.726Z,4.91
2018-11-04T07:20:53.044Z,4.93
2018-11-04T07:23:21.319Z,5.00
2018-11-04T07:25:49.621Z,5.03
2018-11-04T07:28:17.855Z,5.09
2018-11-04T07:30:46.149Z,5.14
2018-11-04T07:33:14.455Z,5.16
2018-11-04T07:35:42.728Z,5.20
2018-11-04T07:38:11.079Z,5.23
2018-11-04T07:40:39.374Z,5.24
2018-11-04T07:43:07.636Z,5.28
2018-11-04T07:45:35.933Z,5.30
2018-11-04T07:48:04.230Z,5.29
2018-11-04T07:50:32.577Z,5.29
2018-11-04T07:53:00.836Z,5.29
2018-11-04T07:55:29.122Z,5.34
2018-11-04T07:57:57.405Z,5.44
2018-11-04T08:00:25.737Z,5.51
2018-11-04T08:02:54.016Z,5.58
2018-11-04T08:05:22.336Z,5.64
2018-11-04T08:07:50.656Z,5.70
2018-11-04T08:10:18.939Z,5.77
2018-11-04T08:12:47.211Z,5.84
2018-11-04T08:15:15.547Z,5.88
2018-11-04T08:17:43.858Z,5.94
2018-11-04T08:20:12.170Z,6.01
2018-11-04T08:22:40.873Z,6.05
2018-11-04T08:25:09.139Z,6.09
2018-11-04T08:27:37.680Z,6.14
2018-11-04T08:30:07.456Z,6.15
2018-11-04T08:32:35.860Z,6.18
2018-11-04T08:35:04.179Z,6.17
2018-11-04T08:37:32.505Z,6.21
2018-11-04T08:40:01.140Z,6.25
2018-11-04T08:42:29.384Z,6.28
2018-11-04T08:44:57.646Z,6.28
2018-11-04T08:47:25.890Z,6.35
2018-11-04T08:49:54.154Z,6.42
2018-11-04T08:52:22.510Z,6.46
2018-11-04T08:54:50.814Z,6.47
2018-11-04T08:57:19.129Z,6.53
2018-11-04T08:59:47.448Z,6.60
2018-11-04T09:02:15.756Z,6.65
2018-11-04T09:04:44.093Z,6.63
2018-11-04T09:07:12.348Z,6.71
2018-11-04T09:09:40.617Z,6.82
2018-11-04T09:12:08.914Z,6.88
2018-11-04T09:14:37.203Z,6.86
2018-11-04T09:17:06.078Z,6.92
2018-11-04T09:19:34.332Z,6.97
2018-11-04T09:22:02.888Z,7.04
2018-11-04T09:24:30.913Z,7.05
2018-11-04T09:26:59.173Z,7.01
2018-11-04T09:29:27.459Z,6.98
2018-11-04T09:31:55.741Z,6.98
2018-11-04T09:34:24.031Z,6.98
2018-11-04T09:36:52.383Z,6.99
2018-11-04T09:39:20.687Z,6.99
2018-11-04T09:41:49.031Z,7.02
2018-11-04T09:44:17.313Z,7.03
2018-11-04T09:46:45.643Z,7.14
2018-11-04T09:49:14.338Z,7.25
2018-11-04T09:51:42.793Z,7.30
2018-11-04T09:54:11.048Z,7.34
2018-11-04T09:56:39.402Z,7.39
2018-11-04T09:59:07.677Z,7.43
2018-11-04T10:01:35.970Z,7.50
2018-11-04T10:04:04.247Z,7.53
2018-11-04T10:06:32.575Z,7.61
2018-11-04T10:09:00.843Z,7.70
2018-11-04T10:11:29.199Z,7.80
2018-11-04T10:13:57.515Z,7.90
2018-11-04T10:16:25.931Z,7.97
2018-11-04T10:18:54.215Z,8.03
2018-11-04T10:21:22.504Z,8.08
2018-11-04T10:23:50.784Z,8.07
2018-11-04T10:26:19.080Z,8.09
2018-11-04T10:28:47.355Z,8.11
2018-11-04T10:31:15.626Z,8.13
2018-11-04T10:33:43.907Z,8.12
2018-11-04T10:36:12.176Z,8.10
2018-11-04T10:38:40.478Z,8.04
2018-11-04T10:41:08.801Z,8.06
2018-11-04T10:43:37.097Z,8.07
2018-11-04T10:46:05.564Z,8.04
2018-11-04T10:48:33.875Z,8.07
2018-11-04T10:51:02.192Z,8.12
2018-11-04T10:53:30.467Z,8.20
2018-11-04T10:55:58.887Z,8.18
2018-11-04T10:58:27.136Z,8.18
2018-11-04T11:01:00.815Z,8.24
2018-11-04T11:03:29.123Z,8.29
2018-11-04T11:05:57.634Z,8.33
2018-11-04T11:08:25.907Z,8.38
2018-11-04T11:10:54.366Z,8.43
2018-11-04T11:13:22.636Z,8.49
2018-11-04T11:15:51.411Z,8.56
2018-11-04T11:18:20.176Z,8.57
2018-11-04T11:20:48.469Z,8.65
2018-11-04T11:23:16.979Z,8.72
2018-11-04T11:25:45.162Z,8.76
2018-11-04T11:28:13.517Z,8.80
2018-11-04T11:30:42.091Z,8.88
2018-11-04T11:33:10.483Z,8.88
2018-11-04T11:35:38.769Z,8.88
2018-11-04T11:38:07.248Z,8.88
2018-11-04T11:40:35.451Z,8.86
2018-11-04T11:43:03.794Z,8.95
2018-11-04T11:45:32.070Z,9.05
2018-11-04T11:48:00.895Z,9.12
2018-11-04T11:50:29.186Z,9.13
2018-11-04T11:52:57.666Z,9.13
2018-11-04T11:55:25.969Z,9.11
2018-11-04T11:57:54.266Z,9.10
2018-11-04T12:00:23.340Z,9.16
2018-11-04T12:02:51.677Z,9.26
2018-11-04T12:05:20.010Z,9.32
2018-11-04T12:07:48.260Z,9.34
2018-11-04T12:10:16.589Z,9.37
2018-11-04T12:12:44.874Z,9.34
2018-11-04T12:15:14.169Z,9.32
2018-11-04T12:17:42.581Z,9.37
2018-11-04T12:20:11.799Z,9.40
2018-11-04T12:22:40.164Z,9.46
2018-11-04T12:25:09.865Z,9.51
2018-11-04T12:27:38.141Z,9.57
2018-11-04T12:30:09.235Z,9.60
2018-11-04T12:32:37.723Z,9.63
2018-11-04T12:35:06.891Z,9.69
2018-11-04T12:37:35.537Z,9.75
2018-11-04T12:40:04.108Z,9.79
2018-11-04T12:42:32.459Z,9.86
2018-11-04T12:45:00.894Z,9.87
2018-11-04T12:47:29.198Z,9.93
2018-11-04T12:49:57.495Z,9.93
2018-11-04T12:52:25.864Z,9.98
2018-11-04T12:54:54.113Z,10.02
2018-11-04T12:57:22.426Z,10.01
2018-11-04T12:59:50.832Z,10.03
2018-11-04T13:02:19.141Z,10.05
2018-11-04T13:04:47.524Z,10.02
2018-11-04T13:07:15.816Z,10.03
2018-11-04T13:09:44.151Z,10.05
2018-11-04T13:12:12.507Z,10.12
2018-11-04T13:14:40.799Z,10.09
2018-11-04T13:17:09.132Z,10.10
2018-11-04T13:19:37.408Z,10.18
2018-11-04T13:22:05.718Z,10.23
2018-11-04T13:24:34.063Z,10.30
2018-11-04T13:27:02.373Z,10.36
2018-11-04T13:29:30.652Z,10.34
2018-11-04T13:31:59.063Z,10.35
2018-11-04T13:34:27.484Z,10.32
2018-11-04T13:36:55.782Z,10.31
2018-11-04T13:39:24.098Z,10.34
2018-11-04T13:41:52.384Z,10.43
2018-11-04T13:44:20.984Z,10.52
2018-11-04T13:46:49.385Z,10.53
2018-11-04T13:49:18.045Z,10.57
2018-11-04T13:51:46.347Z,10.60
2018-11-04T13:54:14.674Z,10.64
2018-11-04T13:56:42.959Z,10.63
2018-11-04T13:59:11.247Z,10.65
2018-11-04T14:01:39.815Z,10.67
2018-11-04T14:04:08.112Z,10.66
2018-11-04T14:06:36.555Z,10.68
2018-11-04T14:09:05.986Z,10.68
2018-11-04T14:11:34.420Z,10.64
2018-11-04T14:14:02.827Z,10.67
2018-11-04T14:16:31.130Z,10.70
2018-11-04T14:18:59.468Z,10.74
2018-11-04T14:21:27.883Z,10.76
2018-11-04T14:23:56.367Z,10.81
2018-11-04T14:26:24.572Z,10.82
2018-11-04T14:28:52.922Z,10.83
2018-11-04T14:31:21.248Z,10.83
2018-11-04T14:33:49.611Z,10.85
2018-11-04T14:36:18.095Z,10.84
2018-11-04T14:38:46.484Z,10.84
2018-11-04T14:41:14.755Z,10.82
2018-11-04T14:43:43.046Z,10.81
2018-11-04T14:46:11.418Z,10.81
2018-11-04T14:48:39.752Z,10.83
2018-11-04T14:51:08.048Z,10.83
2018-11-04T14:53:36.336Z,10.85
2018-11-04T14:56:04.834Z,10.86
2018-11-04T14:58:33.207Z,10.88
2018-11-04T15:01:01.500Z,10.88
2018-11-04T15:03:29.775Z,10.89
2018-11-04T15:05:58.155Z,10.90
2018-11-04T15:08:26.641Z,10.91
2018-11-04T15:10:55.049Z,10.91
2018-11-04T15:13:23.345Z,10.92
2018-11-04T15:15:51.703Z,10.94
2018-11-04T15:18:19.994Z,10.93
2018-11-04T15:20:48.567Z,10.95
2018-11-04T15:23:17.075Z,10.95
2018-11-04T15:25:45.420Z,10.95
2018-11-04T15:28:13.843Z,10.95
2018-11-04T15:30:42.169Z,10.91
2018-11-04T15:33:10.543Z,10.91
2018-11-04T15:35:38.808Z,10.91
2018-11-04T15:38:07.193Z,10.91
2018-11-04T15:40:35.978Z,10.91
2018-11-04T15:43:04.600Z,10.91
2018-11-04T15:45:33.072Z,10.90
2018-11-04T15:48:01.492Z,10.91
2018-11-04T15:50:29.939Z,10.90
2018-11-04T15:52:58.724Z,10.88
2018-11-04T15:55:27.003Z,10.86
2018-11-04T15:57:55.302Z,10.82
2018-11-04T16:00:23.579Z,10.79
2018-11-04T16:02:51.913Z,10.75
2018-11-04T16:05:20.321Z,10.72
2018-11-04T16:07:48.632Z,10.69
2018-11-04T16:10:16.972Z,10.63
2018-11-04T16:12:45.453Z,10.61
2018-11-04T16:15:14.815Z,10.59
2018-11-04T16:17:43.793Z,10.57
2018-11-04T16:20:13.566Z,10.58
2018-11-04T16:22:42.526Z,10.56
2018-11-04T16:25:11.450Z,10.52
2018-11-04T16:27:39.988Z,10.53
2018-11-04T16:30:09.515Z,10.53
2018-11-04T16:32:38.269Z,10.51
2018-11-04T16:35:07.443Z,10.52
2018-11-04T16:37:35.771Z,10.53
2018-11-04T16:40:04.037Z,10.55
2018-11-04T16:42:32.334Z,10.57
2018-11-04T16:45:00.604Z,10.60
2018-11-04T16:47:28.912Z,10.63
2018-11-04T16:49:57.211Z,10.65
2018-11-04T16:52:25.751Z,10.69
2018-11-04T16:54:54.200Z,10.70
2018-11-04T16:57:22.445Z,10.69
2018-11-04T16:59:50.756Z,10.69
2018-11-04T17:02:19.068Z,10.67
2018-11-04T17:04:47.667Z,10.66
2018-11-04T17:07:15.838Z,10.64
2018-11-04T17:09:44.216Z,10.66
2018-11-04T17:12:12.498Z,10.66
2018-11-04T17:14:40.774Z,10.66
2018-11-04T17:17:09.031Z,10.62
2018-11-04T17:19:37.358Z,10.61
2018-11-04T17:22:05.899Z,10.64
2018-11-04T17:24:34.158Z,10.62
2018-11-04T17:27:02.442Z,10.61
2018-11-04T17:29:30.738Z,10.59
2018-11-04T17:31:59.007Z,10.58
2018-11-04T17:34:27.280Z,10.57
2018-11-04T17:36:55.540Z,10.57
2018-11-04T17:39:23.853Z,10.57
2018-11-04T17:41:52.122Z,10.57
2018-11-04T17:44:20.505Z,10.56
2018-11-04T17:46:48.732Z,10.53
2018-11-04T17:49:17.141Z,10.53
2018-11-04T17:51:45.403Z,10.54
2018-11-04T17:54:13.766Z,10.54
2018-11-04T17:56:42.055Z,10.54
2018-11-04T17:59:10.312Z,10.55
2018-11-04T18:01:38.611Z,10.56
2018-11-04T18:04:07.036Z,10.56
2018-11-04T18:06:35.445Z,10.55
2018-11-04T18:09:04.850Z,10.56
2018-11-04T18:11:33.116Z,10.53
2018-11-04T18:14:01.491Z,10.49
2018-11-04T18:16:29.711Z,10.47
2018-11-04T18:18:58.035Z,10.42
2018-11-04T18:21:26.334Z,10.43
2018-11-04T18:23:54.640Z,10.42
2018-11-04T18:26:23.035Z,10.38
2018-11-04T18:28:51.403Z,10.37
2018-11-04T18:31:19.707Z,10.34
2018-11-04T18:33:48.026Z,10.32
2018-11-04T18:36:16.341Z,10.32
2018-11-04T18:38:44.668Z,10.29
2018-11-04T18:41:12.958Z,10.27
2018-11-04T18:43:41.772Z,10.27
2018-11-04T18:46:10.046Z,10.24
2018-11-04T18:48:38.310Z,10.21
2018-11-04T18:51:06.603Z,10.21
2018-11-04T18:53:34.873Z,10.19
2018-11-04T18:56:03.175Z,10.18
2018-11-04T18:58:31.535Z,10.17
2018-11-04T19:00:59.845Z,10.15
2018-11-04T19:03:28.405Z,10.10
2018-11-04T19:05:56.724Z,10.06
2018-11-04T19:08:25.030Z,10.03
2018-11-04T19:10:53.338Z,9.99
2018-11-04T19:13:21.606Z,9.97
2018-11-04T19:15:50.027Z,9.93
2018-11-04T19:18:18.306Z,9.91
2018-11-04T19:20:46.582Z,9.93
2018-11-04T19:23:15.014Z,9.94
2018-11-04T19:25:43.281Z,9.93
2018-11-04T19:28:11.580Z,9.91
2018-11-04T19:30:39.903Z,9.88
2018-11-04T19:33:08.172Z,9.85
2018-11-04T19:35:37.036Z,9.79
2018-11-04T19:38:05.408Z,9.77
2018-11-04T19:40:33.913Z,9.75
2018-11-04T19:43:02.474Z,9.75
2018-11-04T19:45:30.697Z,9.76
2018-11-04T19:47:59.059Z,9.73
2018-11-04T19:50:27.274Z,9.65
2018-11-04T19:52:55.561Z,9.61
2018-11-04T19:55:23.835Z,9.58
2018-11-04T19:57:52.180Z,9.55
2018-11-04T20:00:20.487Z,9.47
2018-11-04T20:02:48.771Z,9.36
2018-11-04T20:05:17.130Z,9.23
2018-11-04T20:07:45.390Z,9.16
2018-11-04T20:10:15.807Z,9.08
2018-11-04T20:12:49.427Z,9.03
2018-11-04T20:15:17.721Z,8.98
2018-11-04T20:17:46.983Z,8.96
2018-11-04T20:20:17.214Z,8.85
2018-11-04T20:22:45.482Z,8.77
2018-11-04T20:25:19.167Z,8.73
2018-11-04T20:27:48.214Z,8.76
2018-11-04T20:30:16.492Z,8.75
2018-11-04T20:32:50.262Z,8.70
2018-11-04T20:35:18.540Z,8.64
2018-11-04T20:37:46.858Z,8.61
2018-11-04T20:40:20.453Z,8.59
2018-11-04T20:42:48.776Z,8.56
2018-11-04T20:45:17.126Z,8.45
2018-11-04T20:47:50.782Z,8.36
2018-11-04T20:50:24.539Z,8.30
2018-11-04T20:52:52.838Z,8.27
2018-11-04T20:55:21.095Z,8.25
2018-11-04T20:57:58.308Z,8.23
2018-11-04T21:00:26.797Z,8.16
2018-11-04T21:02:55.464Z,8.08
2018-11-04T21:05:23.773Z,8.03
2018-11-04T21:07:52.568Z,7.98
2018-11-04T21:10:20.909Z,7.92
2018-11-04T21:12:49.206Z,7.82
2018-11-04T21:15:17.560Z,7.73
2018-11-04T21:17:45.863Z,7.71
2018-11-04T21:20:14.124Z,7.72
2018-11-04T21:22:42.531Z,7.71
2018-11-04T21:25:10.845Z,7.66
2018-11-04T21:27:39.164Z,7.63
2018-11-04T21:30:09.555Z,7.59
2018-11-04T21:32:38.139Z,7.56
2018-11-04T21:35:07.424Z,7.53
2018-11-04T21:37:35.818Z,7.48
2018-11-04T21:40:04.594Z,7.43
2018-11-04T21:42:33.063Z,7.46
2018-11-04T21:45:01.261Z,7.51
2018-11-04T21:47:29.542Z,7.52
2018-11-04T21:49:57.866Z,7.57
2018-11-04T21:52:26.185Z,7.62
2018-11-04T21:54:54.456Z,7.61
2018-11-04T21:57:22.776Z,7.57
2018-11-04T21:59:51.097Z,7.51
2018-11-04T22:02:20.731Z,7.41
2018-11-04T22:04:48.980Z,7.34
2018-11-04T22:07:17.285Z,7.30
2018-11-04T22:09:45.883Z,7.20
2018-11-04T22:12:14.183Z,7.13
2018-11-04T22:14:42.464Z,7.05
2018-11-04T22:17:10.758Z,7.00
2018-11-04T22:19:39.054Z,6.95
2018-11-04T22:22:07.428Z,6.90
2018-11-04T22:24:35.646Z,6.86
2018-11-04T22:27:03.915Z,6.81
2018-11-04T22:29:32.379Z,6.80
2018-11-04T22:32:00.679Z,6.81
2018-11-04T22:34:28.965Z,6.80
2018-11-04T22:36:57.276Z,6.78
2018-11-04T22:39:25.820Z,6.77
2018-11-04T22:41:54.153Z,6.73
2018-11-04T22:44:22.435Z,6.68
2018-11-04T22:46:50.739Z,6.63
2018-11-04T22:49:19.046Z,6.61
2018-11-04T22:51:47.322Z,6.57
2018-11-04T22:54:15.643Z,6.54
2018-11-04T22:56:43.958Z,6.54
2018-11-04T22:59:12.348Z,6.50
2018-11-04T23:01:40.812Z,6.51
2018-11-04T23:04:09.048Z,6.56
2018-11-04T23:06:37.271Z,6.58
2018-11-04T23:09:09.176Z,6.55
2018-11-04T23:11:37.723Z,6.57
2018-11-04T23:14:06.080Z,6.53
2018-11-04T23:16:34.352Z,6.49
2018-11-04T23:19:02.823Z,6.49
2018-11-04T23:21:31.136Z,6.47
2018-11-04T23:23:59.579Z,6.51
2018-11-04T23:26:27.945Z,6.58
2018-11-04T23:28:56.408Z,6.63
2018-11-04T23:31:24.686Z,6.68
2018-11-04T23:33:53.054Z,6.76
2018-11-04T23:36:21.548Z,6.78
2018-11-04T23:38:49.816Z,6.78
2018-11-04T23:41:18.191Z,6.78
2018-11-04T23:43:46.499Z,6.80
2018-11-04T23:46:14.787Z,6.74
2018-11-04T23:48:43.127Z,6.68
2018-11-04T23:51:11.430Z,6.61
2018-11-04T23:53:40.414Z,6.59
2018-11-04T23:56:08.703Z,6.59
2018-11-04T23:58:36.991Z,6.62
